sensor_id;sensor_type;location;lat;lon;timestamp;temperature;humidity
30174;DHT22;16985;50.814;8.530;2023-09-12T00:00:19;19.20;99.90
30174;DHT22;16985;50.814;8.530;2023-09-12T00:02:46;19.20;99.90
30174;DHT22;16985;50.814;8.530;2023-09-12T00:05:12;19.20;99.90
30174;DHT22;16985;50.814;8.530;2023-09-12T00:07:39;19.20;99.90
30174;DHT22;16985;50.814;8.530;2023-09-12T00:10:05;19.10;99.90
30174;DHT22;16985;50.814;8.530;2023-09-12T00:12:31;19.10;99.90
30174;DHT22;16985;50.814;8.530;2023-09-12T00:14:57;19.10;99.90
30174;DHT22;16985;50.814;8.530;2023-09-12T00:17:24;19.00;99.90
30174;DHT22;16985;50.814;8.530;2023-09-12T00:19:52;19.00;99.90
30174;DHT22;16985;50.814;8.530;2023-09-12T00:22:21;19.00;99.90
30174;DHT22;16985;50.814;8.530;2023-09-12T00:24:47;19.00;99.90
30174;DHT22;16985;50.814;8.530;2023-09-12T00:27:13;18.90;99.90
30174;DHT22;16985;50.814;8.530;2023-09-12T00:29:40;18.90;99.90
30174;DHT22;16985;50.814;8.530;2023-09-12T00:32:06;18.90;99.90
30174;DHT22;16985;50.814;8.530;2023-09-12T00:34:32;18.70;99.90
30174;DHT22;16985;50.814;8.530;2023-09-12T00:36:58;18.80;99.90
30174;DHT22;16985;50.814;8.530;2023-09-12T00:39:27;18.80;99.90
30174;DHT22;16985;50.814;8.530;2023-09-12T00:41:53;18.70;99.90
30174;DHT22;16985;50.814;8.530;2023-09-12T00:44:19;18.70;99.90
30174;DHT22;16985;50.814;8.530;2023-09-12T00:46:48;18.70;99.90
30174;DHT22;16985;50.814;8.530;2023-09-12T00:49:16;18.70;99.90
30174;DHT22;16985;50.814;8.530;2023-09-12T00:51:44;18.70;99.90
30174;DHT22;16985;50.814;8.530;2023-09-12T00:54:10;18.60;99.90
30174;DHT22;16985;50.814;8.530;2023-09-12T00:56:36;18.60;99.90
30174;DHT22;16985;50.814;8.530;2023-09-12T00:59:04;18.60;99.90
30174;DHT22;16985;50.814;8.530;2023-09-12T01:01:31;18.60;99.90
30174;DHT22;16985;50.814;8.530;2023-09-12T01:03:57;18.60;99.90
30174;DHT22;16985;50.814;8.530;2023-09-12T01:06:24;18.50;99.90
30174;DHT22;16985;50.814;8.530;2023-09-12T01:08:54;18.50;99.90
30174;DHT22;16985;50.814;8.530;2023-09-12T01:11:21;18.50;99.90
30174;DHT22;16985;50.814;8.530;2023-09-12T01:13:47;18.50;99.90
30174;DHT22;16985;50.814;8.530;2023-09-12T01:16:13;18.50;99.90
30174;DHT22;16985;50.814;8.530;2023-09-12T01:18:39;18.40;99.90
30174;DHT22;16985;50.814;8.530;2023-09-12T01:21:23;18.40;99.90
30174;DHT22;16985;50.814;8.530;2023-09-12T01:25:29;18.40;99.90
30174;DHT22;16985;50.814;8.530;2023-09-12T01:27:41;18.40;99.90
30174;DHT22;16985;50.814;8.530;2023-09-12T01:30:10;18.40;99.90
30174;DHT22;16985;50.814;8.530;2023-09-12T01:32:37;18.40;99.90
30174;DHT22;16985;50.814;8.530;2023-09-12T01:35:05;18.30;99.90
30174;DHT22;16985;50.814;8.530;2023-09-12T01:37:31;18.30;99.90
30174;DHT22;16985;50.814;8.530;2023-09-12T01:39:57;18.30;99.90
30174;DHT22;16985;50.814;8.530;2023-09-12T01:42:24;18.30;99.90
30174;DHT22;16985;50.814;8.530;2023-09-12T01:44:56;18.30;99.90
30174;DHT22;16985;50.814;8.530;2023-09-12T01:47:32;18.30;99.90
30174;DHT22;16985;50.814;8.530;2023-09-12T01:50:01;18.20;99.90
30174;DHT22;16985;50.814;8.530;2023-09-12T01:52:32;18.20;99.90
30174;DHT22;16985;50.814;8.530;2023-09-12T01:54:58;18.30;99.90
30174;DHT22;16985;50.814;8.530;2023-09-12T01:57:25;18.20;99.90
30174;DHT22;16985;50.814;8.530;2023-09-12T01:59:51;18.10;99.90
30174;DHT22;16985;50.814;8.530;2023-09-12T02:02:17;18.10;99.90
30174;DHT22;16985;50.814;8.530;2023-09-12T02:04:58;18.10;99.90
30174;DHT22;16985;50.814;8.530;2023-09-12T02:07:37;18.10;99.90
30174;DHT22;16985;50.814;8.530;2023-09-12T02:10:04;18.00;99.90
30174;DHT22;16985;50.814;8.530;2023-09-12T02:12:31;18.00;99.90
30174;DHT22;16985;50.814;8.530;2023-09-12T02:14:57;18.00;99.90
30174;DHT22;16985;50.814;8.530;2023-09-12T02:17:23;18.00;99.90
30174;DHT22;16985;50.814;8.530;2023-09-12T02:19:49;18.00;99.90
30174;DHT22;16985;50.814;8.530;2023-09-12T02:22:15;17.90;99.90
30174;DHT22;16985;50.814;8.530;2023-09-12T02:24:41;17.90;99.90
30174;DHT22;16985;50.814;8.530;2023-09-12T02:27:07;17.90;99.90
30174;DHT22;16985;50.814;8.530;2023-09-12T02:29:32;17.90;99.90
30174;DHT22;16985;50.814;8.530;2023-09-12T02:31:59;17.80;99.90
30174;DHT22;16985;50.814;8.530;2023-09-12T02:34:25;17.80;99.90
30174;DHT22;16985;50.814;8.530;2023-09-12T02:36:51;17.90;99.90
30174;DHT22;16985;50.814;8.530;2023-09-12T02:39:17;17.80;99.90
30174;DHT22;16985;50.814;8.530;2023-09-12T02:41:43;17.80;99.90
30174;DHT22;16985;50.814;8.530;2023-09-12T02:44:09;17.80;99.90
30174;DHT22;16985;50.814;8.530;2023-09-12T02:46:36;17.80;99.90
30174;DHT22;16985;50.814;8.530;2023-09-12T02:49:02;17.80;99.90
30174;DHT22;16985;50.814;8.530;2023-09-12T02:51:28;17.70;99.90
30174;DHT22;16985;50.814;8.530;2023-09-12T02:53:54;17.80;99.90
30174;DHT22;16985;50.814;8.530;2023-09-12T02:56:20;17.80;99.90
30174;DHT22;16985;50.814;8.530;2023-09-12T02:58:46;17.80;99.90
30174;DHT22;16985;50.814;8.530;2023-09-12T03:01:16;17.80;99.90
30174;DHT22;16985;50.814;8.530;2023-09-12T03:03:45;17.70;99.90
30174;DHT22;16985;50.814;8.530;2023-09-12T03:06:13;17.70;99.90
30174;DHT22;16985;50.814;8.530;2023-09-12T03:08:46;17.70;99.90
30174;DHT22;16985;50.814;8.530;2023-09-12T03:11:13;17.70;99.90
30174;DHT22;16985;50.814;8.530;2023-09-12T03:13:40;17.70;99.90
30174;DHT22;16985;50.814;8.530;2023-09-12T03:16:14;17.60;99.90
30174;DHT22;16985;50.814;8.530;2023-09-12T03:18:40;17.60;99.90
30174;DHT22;16985;50.814;8.530;2023-09-12T03:21:06;17.70;99.90
30174;DHT22;16985;50.814;8.530;2023-09-12T03:23:33;17.70;99.90
30174;DHT22;16985;50.814;8.530;2023-09-12T03:26:03;17.70;99.90
30174;DHT22;16985;50.814;8.530;2023-09-12T03:28:31;17.70;99.90
30174;DHT22;16985;50.814;8.530;2023-09-12T03:31:06;17.70;99.90
30174;DHT22;16985;50.814;8.530;2023-09-12T03:33:33;17.70;99.90
30174;DHT22;16985;50.814;8.530;2023-09-12T03:35:59;17.60;99.90
30174;DHT22;16985;50.814;8.530;2023-09-12T03:38:25;17.70;99.90
30174;DHT22;16985;50.814;8.530;2023-09-12T03:40:51;17.70;99.90
30174;DHT22;16985;50.814;8.530;2023-09-12T03:43:17;17.60;99.90
30174;DHT22;16985;50.814;8.530;2023-09-12T03:45:43;17.60;99.90
30174;DHT22;16985;50.814;8.530;2023-09-12T03:48:09;17.60;99.90
30174;DHT22;16985;50.814;8.530;2023-09-12T03:50:35;17.70;99.90
30174;DHT22;16985;50.814;8.530;2023-09-12T03:53:00;17.70;99.90
30174;DHT22;16985;50.814;8.530;2023-09-12T03:55:27;17.60;99.90
30174;DHT22;16985;50.814;8.530;2023-09-12T03:57:53;17.60;99.90
30174;DHT22;16985;50.814;8.530;2023-09-12T04:00:19;17.60;99.90
30174;DHT22;16985;50.814;8.530;2023-09-12T04:02:47;17.70;99.90
30174;DHT22;16985;50.814;8.530;2023-09-12T04:05:14;17.70;99.90
30174;DHT22;16985;50.814;8.530;2023-09-12T04:07:40;17.70;99.90
30174;DHT22;16985;50.814;8.530;2023-09-12T04:10:06;17.80;99.90
30174;DHT22;16985;50.814;8.530;2023-09-12T04:12:32;17.70;99.90
30174;DHT22;16985;50.814;8.530;2023-09-12T04:14:58;17.70;99.90
30174;DHT22;16985;50.814;8.530;2023-09-12T04:17:24;17.70;99.90
30174;DHT22;16985;50.814;8.530;2023-09-12T04:19:50;17.70;99.90
30174;DHT22;16985;50.814;8.530;2023-09-12T04:22:16;17.70;99.90
30174;DHT22;16985;50.814;8.530;2023-09-12T04:24:42;17.70;99.90
30174;DHT22;16985;50.814;8.530;2023-09-12T04:27:07;17.70;99.90
30174;DHT22;16985;50.814;8.530;2023-09-12T04:29:34;17.70;99.90
30174;DHT22;16985;50.814;8.530;2023-09-12T04:32:03;17.70;99.90
30174;DHT22;16985;50.814;8.530;2023-09-12T04:34:30;17.70;99.90
30174;DHT22;16985;50.814;8.530;2023-09-12T04:36:56;17.70;99.90
30174;DHT22;16985;50.814;8.530;2023-09-12T04:39:23;17.70;99.90
30174;DHT22;16985;50.814;8.530;2023-09-12T04:41:49;17.70;99.90
30174;DHT22;16985;50.814;8.530;2023-09-12T04:44:15;17.60;99.90
30174;DHT22;16985;50.814;8.530;2023-09-12T04:46:40;17.70;99.90
30174;DHT22;16985;50.814;8.530;2023-09-12T04:49:06;17.80;99.90
30174;DHT22;16985;50.814;8.530;2023-09-12T04:51:32;17.70;99.90
30174;DHT22;16985;50.814;8.530;2023-09-12T04:53:58;17.80;99.90
30174;DHT22;16985;50.814;8.530;2023-09-12T04:56:24;17.70;99.90
30174;DHT22;16985;50.814;8.530;2023-09-12T04:58:50;17.70;99.90
30174;DHT22;16985;50.814;8.530;2023-09-12T05:01:16;17.70;99.90
30174;DHT22;16985;50.814;8.530;2023-09-12T05:03:43;17.70;99.90
30174;DHT22;16985;50.814;8.530;2023-09-12T05:06:10;17.70;99.90
30174;DHT22;16985;50.814;8.530;2023-09-12T05:08:37;17.70;99.90
30174;DHT22;16985;50.814;8.530;2023-09-12T05:11:03;17.70;99.90
30174;DHT22;16985;50.814;8.530;2023-09-12T05:13:30;17.70;99.90
30174;DHT22;16985;50.814;8.530;2023-09-12T05:15:56;17.70;99.90
30174;DHT22;16985;50.814;8.530;2023-09-12T05:18:23;17.70;99.90
30174;DHT22;16985;50.814;8.530;2023-09-12T05:20:49;17.60;99.90
30174;DHT22;16985;50.814;8.530;2023-09-12T05:23:15;17.60;99.90
30174;DHT22;16985;50.814;8.530;2023-09-12T05:25:41;17.60;99.90
30174;DHT22;16985;50.814;8.530;2023-09-12T05:28:07;17.60;99.90
30174;DHT22;16985;50.814;8.530;2023-09-12T05:30:33;17.60;99.90
30174;DHT22;16985;50.814;8.530;2023-09-12T05:32:59;17.70;99.90
30174;DHT22;16985;50.814;8.530;2023-09-12T05:35:25;17.70;99.90
30174;DHT22;16985;50.814;8.530;2023-09-12T05:37:52;17.70;99.90
30174;DHT22;16985;50.814;8.530;2023-09-12T05:40:21;17.70;99.90
30174;DHT22;16985;50.814;8.530;2023-09-12T05:42:47;17.70;99.90
30174;DHT22;16985;50.814;8.530;2023-09-12T05:45:13;17.70;99.90
30174;DHT22;16985;50.814;8.530;2023-09-12T05:47:39;17.70;99.90
30174;DHT22;16985;50.814;8.530;2023-09-12T05:50:06;17.70;99.90
30174;DHT22;16985;50.814;8.530;2023-09-12T05:52:33;17.70;99.90
30174;DHT22;16985;50.814;8.530;2023-09-12T05:55:00;17.60;99.90
30174;DHT22;16985;50.814;8.530;2023-09-12T05:57:26;17.70;99.90
30174;DHT22;16985;50.814;8.530;2023-09-12T05:59:52;17.70;99.90
30174;DHT22;16985;50.814;8.530;2023-09-12T06:02:18;17.70;99.90
30174;DHT22;16985;50.814;8.530;2023-09-12T06:04:44;17.70;99.90
30174;DHT22;16985;50.814;8.530;2023-09-12T06:07:10;17.70;99.90
30174;DHT22;16985;50.814;8.530;2023-09-12T06:09:36;17.70;99.90
30174;DHT22;16985;50.814;8.530;2023-09-12T06:12:02;17.70;99.90
30174;DHT22;16985;50.814;8.530;2023-09-12T06:14:28;17.70;99.90
30174;DHT22;16985;50.814;8.530;2023-09-12T06:16:54;17.70;99.90
30174;DHT22;16985;50.814;8.530;2023-09-12T06:19:20;17.70;99.90
30174;DHT22;16985;50.814;8.530;2023-09-12T06:21:46;17.70;99.90
30174;DHT22;16985;50.814;8.530;2023-09-12T06:24:16;17.70;99.90
30174;DHT22;16985;50.814;8.530;2023-09-12T06:26:46;17.70;99.90
30174;DHT22;16985;50.814;8.530;2023-09-12T06:29:13;17.70;99.90
30174;DHT22;16985;50.814;8.530;2023-09-12T06:31:39;17.70;99.90
30174;DHT22;16985;50.814;8.530;2023-09-12T06:34:07;17.80;99.90
30174;DHT22;16985;50.814;8.530;2023-09-12T06:36:33;17.80;99.90
30174;DHT22;16985;50.814;8.530;2023-09-12T06:39:00;17.80;99.90
30174;DHT22;16985;50.814;8.530;2023-09-12T06:41:27;17.90;99.90
30174;DHT22;16985;50.814;8.530;2023-09-12T06:43:53;18.00;99.90
30174;DHT22;16985;50.814;8.530;2023-09-12T06:46:22;18.00;99.90
30174;DHT22;16985;50.814;8.530;2023-09-12T06:48:48;18.10;99.90
30174;DHT22;16985;50.814;8.530;2023-09-12T06:51:16;18.20;99.90
30174;DHT22;16985;50.814;8.530;2023-09-12T06:53:42;18.30;99.90
30174;DHT22;16985;50.814;8.530;2023-09-12T06:56:08;18.30;99.90
30174;DHT22;16985;50.814;8.530;2023-09-12T06:58:35;18.40;99.90
30174;DHT22;16985;50.814;8.530;2023-09-12T07:01:07;18.50;99.90
30174;DHT22;16985;50.814;8.530;2023-09-12T07:03:34;18.50;99.90
30174;DHT22;16985;50.814;8.530;2023-09-12T07:06:01;18.60;99.90
30174;DHT22;16985;50.814;8.530;2023-09-12T07:08:30;18.70;99.90
30174;DHT22;16985;50.814;8.530;2023-09-12T07:10:56;18.70;99.90
30174;DHT22;16985;50.814;8.530;2023-09-12T07:13:23;18.80;99.90
30174;DHT22;16985;50.814;8.530;2023-09-12T07:15:52;18.90;99.90
30174;DHT22;16985;50.814;8.530;2023-09-12T07:18:18;18.90;99.90
30174;DHT22;16985;50.814;8.530;2023-09-12T07:20:46;19.00;99.90
30174;DHT22;16985;50.814;8.530;2023-09-12T07:23:11;19.00;99.90
30174;DHT22;16985;50.814;8.530;2023-09-12T07:25:39;19.00;99.90
30174;DHT22;16985;50.814;8.530;2023-09-12T07:28:07;19.10;99.90
30174;DHT22;16985;50.814;8.530;2023-09-12T07:30:33;19.20;99.90
30174;DHT22;16985;50.814;8.530;2023-09-12T07:32:59;19.20;99.90
30174;DHT22;16985;50.814;8.530;2023-09-12T07:35:25;19.30;99.90
30174;DHT22;16985;50.814;8.530;2023-09-12T07:37:51;19.30;99.90
30174;DHT22;16985;50.814;8.530;2023-09-12T07:40:17;19.40;99.90
30174;DHT22;16985;50.814;8.530;2023-09-12T07:42:43;19.40;99.90
30174;DHT22;16985;50.814;8.530;2023-09-12T07:45:09;19.50;99.90
30174;DHT22;16985;50.814;8.530;2023-09-12T07:47:35;19.50;99.90
30174;DHT22;16985;50.814;8.530;2023-09-12T07:50:01;19.60;99.90
30174;DHT22;16985;50.814;8.530;2023-09-12T07:52:27;19.70;99.90
30174;DHT22;16985;50.814;8.530;2023-09-12T07:55:00;19.80;99.90
30174;DHT22;16985;50.814;8.530;2023-09-12T07:57:26;19.80;99.90
30174;DHT22;16985;50.814;8.530;2023-09-12T07:59:51;19.90;99.90
30174;DHT22;16985;50.814;8.530;2023-09-12T08:02:17;20.00;99.90
30174;DHT22;16985;50.814;8.530;2023-09-12T08:04:43;20.00;99.90
30174;DHT22;16985;50.814;8.530;2023-09-12T08:07:09;20.10;99.90
30174;DHT22;16985;50.814;8.530;2023-09-12T08:09:54;20.20;99.90
30174;DHT22;16985;50.814;8.530;2023-09-12T08:12:23;20.30;99.90
30174;DHT22;16985;50.814;8.530;2023-09-12T08:14:52;20.40;99.90
30174;DHT22;16985;50.814;8.530;2023-09-12T08:17:19;20.50;99.90
30174;DHT22;16985;50.814;8.530;2023-09-12T08:19:45;20.50;99.90
30174;DHT22;16985;50.814;8.530;2023-09-12T08:22:11;20.60;99.90
30174;DHT22;16985;50.814;8.530;2023-09-12T08:24:37;20.70;99.90
30174;DHT22;16985;50.814;8.530;2023-09-12T08:27:05;20.80;99.90
30174;DHT22;16985;50.814;8.530;2023-09-12T08:29:32;20.90;99.90
30174;DHT22;16985;50.814;8.530;2023-09-12T08:31:59;21.00;99.90
30174;DHT22;16985;50.814;8.530;2023-09-12T08:34:25;21.10;99.90
30174;DHT22;16985;50.814;8.530;2023-09-12T08:36:51;21.20;99.90
30174;DHT22;16985;50.814;8.530;2023-09-12T08:39:23;21.30;99.90
30174;DHT22;16985;50.814;8.530;2023-09-12T08:41:50;21.40;99.90
30174;DHT22;16985;50.814;8.530;2023-09-12T08:44:16;21.40;99.90
30174;DHT22;16985;50.814;8.530;2023-09-12T08:46:44;21.60;99.90
30174;DHT22;16985;50.814;8.530;2023-09-12T08:49:10;21.70;99.90
30174;DHT22;16985;50.814;8.530;2023-09-12T08:51:40;21.80;99.90
30174;DHT22;16985;50.814;8.530;2023-09-12T08:54:07;21.90;99.90
30174;DHT22;16985;50.814;8.530;2023-09-12T08:56:35;22.00;99.90
30174;DHT22;16985;50.814;8.530;2023-09-12T08:59:04;22.10;99.90
30174;DHT22;16985;50.814;8.530;2023-09-12T09:01:31;22.20;99.90
30174;DHT22;16985;50.814;8.530;2023-09-12T09:03:57;22.40;99.90
30174;DHT22;16985;50.814;8.530;2023-09-12T09:06:25;22.50;99.90
30174;DHT22;16985;50.814;8.530;2023-09-12T09:08:52;22.60;99.90
30174;DHT22;16985;50.814;8.530;2023-09-12T09:11:18;22.70;99.90
30174;DHT22;16985;50.814;8.530;2023-09-12T09:13:43;22.80;99.90
30174;DHT22;16985;50.814;8.530;2023-09-12T09:16:11;22.90;99.90
30174;DHT22;16985;50.814;8.530;2023-09-12T09:18:58;23.00;99.90
30174;DHT22;16985;50.814;8.530;2023-09-12T09:21:26;23.10;99.90
30174;DHT22;16985;50.814;8.530;2023-09-12T09:24:01;23.20;99.90
30174;DHT22;16985;50.814;8.530;2023-09-12T09:26:45;23.30;99.90
30174;DHT22;16985;50.814;8.530;2023-09-12T09:29:19;23.40;99.90
30174;DHT22;16985;50.814;8.530;2023-09-12T09:31:47;23.50;99.90
30174;DHT22;16985;50.814;8.530;2023-09-12T09:34:16;23.60;99.90
30174;DHT22;16985;50.814;8.530;2023-09-12T09:36:52;23.70;99.90
30174;DHT22;16985;50.814;8.530;2023-09-12T09:39:20;23.80;99.60
30174;DHT22;16985;50.814;8.530;2023-09-12T09:41:52;23.90;99.20
30174;DHT22;16985;50.814;8.530;2023-09-12T09:44:20;24.10;98.70
30174;DHT22;16985;50.814;8.530;2023-09-12T09:46:55;24.30;98.10
30174;DHT22;16985;50.814;8.530;2023-09-12T09:49:26;24.40;97.70
30174;DHT22;16985;50.814;8.530;2023-09-12T09:51:54;24.50;97.20
30174;DHT22;16985;50.814;8.530;2023-09-12T09:54:24;24.60;96.50
30174;DHT22;16985;50.814;8.530;2023-09-12T09:56:55;24.70;96.20
30174;DHT22;16985;50.814;8.530;2023-09-12T09:59:23;24.90;95.90
30174;DHT22;16985;50.814;8.530;2023-09-12T10:01:51;25.00;95.20
30174;DHT22;16985;50.814;8.530;2023-09-12T10:04:21;25.10;95.10
30174;DHT22;16985;50.814;8.530;2023-09-12T10:06:49;25.30;95.00
30174;DHT22;16985;50.814;8.530;2023-09-12T10:09:16;25.40;94.50
30174;DHT22;16985;50.814;8.530;2023-09-12T10:11:43;25.50;93.90
30174;DHT22;16985;50.814;8.530;2023-09-12T10:14:13;25.60;93.50
30174;DHT22;16985;50.814;8.530;2023-09-12T10:16:50;25.60;93.10
30174;DHT22;16985;50.814;8.530;2023-09-12T10:20:11;25.70;92.80
30174;DHT22;16985;50.814;8.530;2023-09-12T10:22:28;25.80;92.40
30174;DHT22;16985;50.814;8.530;2023-09-12T10:24:57;25.90;92.30
30174;DHT22;16985;50.814;8.530;2023-09-12T10:27:24;26.00;92.10
30174;DHT22;16985;50.814;8.530;2023-09-12T10:29:51;26.20;92.00
30174;DHT22;16985;50.814;8.530;2023-09-12T10:32:19;26.20;91.70
30174;DHT22;16985;50.814;8.530;2023-09-12T10:34:46;26.30;91.50
30174;DHT22;16985;50.814;8.530;2023-09-12T10:37:19;26.50;91.10
30174;DHT22;16985;50.814;8.530;2023-09-12T10:39:49;26.60;90.80
30174;DHT22;16985;50.814;8.530;2023-09-12T10:42:16;26.60;90.50
30174;DHT22;16985;50.814;8.530;2023-09-12T10:44:44;26.70;90.10
30174;DHT22;16985;50.814;8.530;2023-09-12T10:47:12;26.80;89.80
30174;DHT22;16985;50.814;8.530;2023-09-12T10:49:40;26.90;88.90
30174;DHT22;16985;50.814;8.530;2023-09-12T10:52:09;27.10;88.90
30174;DHT22;16985;50.814;8.530;2023-09-12T10:54:39;27.20;88.50
30174;DHT22;16985;50.814;8.530;2023-09-12T10:57:09;27.30;87.40
30174;DHT22;16985;50.814;8.530;2023-09-12T11:02:33;27.40;85.20
30174;DHT22;16985;50.814;8.530;2023-09-12T11:05:05;27.50;85.80
30174;DHT22;16985;50.814;8.530;2023-09-12T11:12:42;27.70;83.50
30174;DHT22;16985;50.814;8.530;2023-09-12T11:15:09;27.80;82.90
30174;DHT22;16985;50.814;8.530;2023-09-12T11:17:43;27.90;83.20
30174;DHT22;16985;50.814;8.530;2023-09-12T11:20:10;28.00;82.90
30174;DHT22;16985;50.814;8.530;2023-09-12T11:22:46;28.00;82.70
30174;DHT22;16985;50.814;8.530;2023-09-12T11:25:20;28.20;82.90
30174;DHT22;16985;50.814;8.530;2023-09-12T11:32:47;28.40;81.20
30174;DHT22;16985;50.814;8.530;2023-09-12T11:35:16;28.40;80.90
30174;DHT22;16985;50.814;8.530;2023-09-12T11:37:50;28.50;80.60
30174;DHT22;16985;50.814;8.530;2023-09-12T11:40:23;28.60;80.40
30174;DHT22;16985;50.814;8.530;2023-09-12T11:42:52;28.70;79.70
30174;DHT22;16985;50.814;8.530;2023-09-12T11:45:20;28.70;79.50
30174;DHT22;16985;50.814;8.530;2023-09-12T11:47:48;28.80;79.30
30174;DHT22;16985;50.814;8.530;2023-09-12T11:50:34;28.90;79.00
30174;DHT22;16985;50.814;8.530;2023-09-12T11:53:04;29.00;78.70
30174;DHT22;16985;50.814;8.530;2023-09-12T11:55:35;29.00;78.60
30174;DHT22;16985;50.814;8.530;2023-09-12T11:58:09;29.10;78.10
30174;DHT22;16985;50.814;8.530;2023-09-12T12:00:37;29.10;77.60
30174;DHT22;16985;50.814;8.530;2023-09-12T12:03:04;29.10;77.40
30174;DHT22;16985;50.814;8.530;2023-09-12T12:05:30;29.10;77.00
30174;DHT22;16985;50.814;8.530;2023-09-12T12:07:57;29.10;77.10
30174;DHT22;16985;50.814;8.530;2023-09-12T12:10:24;29.10;76.40
30174;DHT22;16985;50.814;8.530;2023-09-12T12:12:53;29.10;75.90
30174;DHT22;16985;50.814;8.530;2023-09-12T12:15:20;29.10;76.00
30174;DHT22;16985;50.814;8.530;2023-09-12T12:17:46;29.30;76.50
30174;DHT22;16985;50.814;8.530;2023-09-12T12:20:12;29.30;75.80
30174;DHT22;16985;50.814;8.530;2023-09-12T12:22:38;29.40;75.40
30174;DHT22;16985;50.814;8.530;2023-09-12T12:25:09;29.40;75.30
30174;DHT22;16985;50.814;8.530;2023-09-12T12:27:37;29.40;75.80
30174;DHT22;16985;50.814;8.530;2023-09-12T12:30:06;29.30;75.90
30174;DHT22;16985;50.814;8.530;2023-09-12T12:32:43;29.20;76.10
30174;DHT22;16985;50.814;8.530;2023-09-12T12:35:22;29.20;76.30
30174;DHT22;16985;50.814;8.530;2023-09-12T12:37:49;29.20;76.40
30174;DHT22;16985;50.814;8.530;2023-09-12T12:40:16;29.20;76.40
30174;DHT22;16985;50.814;8.530;2023-09-12T12:42:43;29.20;76.50
30174;DHT22;16985;50.814;8.530;2023-09-12T12:45:17;29.30;76.50
30174;DHT22;16985;50.814;8.530;2023-09-12T12:47:45;29.30;76.60
30174;DHT22;16985;50.814;8.530;2023-09-12T12:50:15;29.30;76.30
30174;DHT22;16985;50.814;8.530;2023-09-12T12:52:47;29.30;75.50
30174;DHT22;16985;50.814;8.530;2023-09-12T12:55:15;29.20;75.10
30174;DHT22;16985;50.814;8.530;2023-09-12T12:57:45;29.20;74.80
30174;DHT22;16985;50.814;8.530;2023-09-12T13:00:15;29.20;75.90
30174;DHT22;16985;50.814;8.530;2023-09-12T13:02:42;29.10;74.60
30174;DHT22;16985;50.814;8.530;2023-09-12T13:05:27;29.10;75.40
30174;DHT22;16985;50.814;8.530;2023-09-12T13:07:54;29.00;75.20
30174;DHT22;16985;50.814;8.530;2023-09-12T13:10:21;28.90;75.20
30174;DHT22;16985;50.814;8.530;2023-09-12T13:12:48;28.80;75.10
30174;DHT22;16985;50.814;8.530;2023-09-12T13:15:15;28.80;75.00
30174;DHT22;16985;50.814;8.530;2023-09-12T13:17:42;28.70;74.00
30174;DHT22;16985;50.814;8.530;2023-09-12T13:20:08;28.70;74.30
30174;DHT22;16985;50.814;8.530;2023-09-12T13:22:35;28.60;73.80
30174;DHT22;16985;50.814;8.530;2023-09-12T13:25:02;28.50;73.70
30174;DHT22;16985;50.814;8.530;2023-09-12T13:27:28;28.50;73.90
30174;DHT22;16985;50.814;8.530;2023-09-12T13:29:54;28.40;73.50
30174;DHT22;16985;50.814;8.530;2023-09-12T13:32:20;28.40;74.40
30174;DHT22;16985;50.814;8.530;2023-09-12T13:34:46;28.30;74.50
30174;DHT22;16985;50.814;8.530;2023-09-12T13:37:12;28.20;74.30
30174;DHT22;16985;50.814;8.530;2023-09-12T13:39:37;28.30;74.60
30174;DHT22;16985;50.814;8.530;2023-09-12T13:42:06;28.20;74.90
30174;DHT22;16985;50.814;8.530;2023-09-12T13:44:34;28.20;75.80
30174;DHT22;16985;50.814;8.530;2023-09-12T13:46:59;28.20;76.00
30174;DHT22;16985;50.814;8.530;2023-09-12T13:49:25;28.20;76.30
30174;DHT22;16985;50.814;8.530;2023-09-12T13:51:51;28.30;76.30
30174;DHT22;16985;50.814;8.530;2023-09-12T13:54:17;28.30;76.60
30174;DHT22;16985;50.814;8.530;2023-09-12T13:56:44;28.30;76.40
30174;DHT22;16985;50.814;8.530;2023-09-12T13:59:09;28.30;76.40
30174;DHT22;16985;50.814;8.530;2023-09-12T14:01:35;28.30;75.50
30174;DHT22;16985;50.814;8.530;2023-09-12T14:04:04;28.30;75.30
30174;DHT22;16985;50.814;8.530;2023-09-12T14:06:32;28.20;75.10
30174;DHT22;16985;50.814;8.530;2023-09-12T14:08:58;28.30;74.70
30174;DHT22;16985;50.814;8.530;2023-09-12T14:11:24;28.20;74.80
30174;DHT22;16985;50.814;8.530;2023-09-12T14:13:50;28.20;74.50
30174;DHT22;16985;50.814;8.530;2023-09-12T14:16:16;28.10;74.00
30174;DHT22;16985;50.814;8.530;2023-09-12T14:18:44;28.10;74.00
30174;DHT22;16985;50.814;8.530;2023-09-12T14:21:10;28.00;74.00
30174;DHT22;16985;50.814;8.530;2023-09-12T14:23:36;28.00;73.80
30174;DHT22;16985;50.814;8.530;2023-09-12T14:26:02;27.90;74.30
30174;DHT22;16985;50.814;8.530;2023-09-12T14:28:28;27.90;74.30
30174;DHT22;16985;50.814;8.530;2023-09-12T14:30:54;27.80;74.20
30174;DHT22;16985;50.814;8.530;2023-09-12T14:33:20;27.70;74.50
30174;DHT22;16985;50.814;8.530;2023-09-12T14:35:47;27.70;74.50
30174;DHT22;16985;50.814;8.530;2023-09-12T14:38:13;27.60;74.90
30174;DHT22;16985;50.814;8.530;2023-09-12T14:40:39;27.60;75.20
30174;DHT22;16985;50.814;8.530;2023-09-12T14:43:05;27.60;75.60
30174;DHT22;16985;50.814;8.530;2023-09-12T14:45:33;27.50;75.80
30174;DHT22;16985;50.814;8.530;2023-09-12T14:47:59;27.60;76.00
30174;DHT22;16985;50.814;8.530;2023-09-12T14:50:25;27.50;76.10
30174;DHT22;16985;50.814;8.530;2023-09-12T14:52:54;27.60;75.90
30174;DHT22;16985;50.814;8.530;2023-09-12T14:55:21;27.60;75.80
30174;DHT22;16985;50.814;8.530;2023-09-12T14:57:47;27.70;75.90
30174;DHT22;16985;50.814;8.530;2023-09-12T15:00:14;27.70;75.90
30174;DHT22;16985;50.814;8.530;2023-09-12T15:02:40;27.80;75.90
30174;DHT22;16985;50.814;8.530;2023-09-12T15:05:07;28.00;75.50
30174;DHT22;16985;50.814;8.530;2023-09-12T15:07:34;28.00;76.00
30174;DHT22;16985;50.814;8.530;2023-09-12T15:10:02;28.00;75.50
30174;DHT22;16985;50.814;8.530;2023-09-12T15:12:29;28.10;74.70
30174;DHT22;16985;50.814;8.530;2023-09-12T15:14:55;28.20;74.40
30174;DHT22;16985;50.814;8.530;2023-09-12T15:17:21;28.20;74.30
30174;DHT22;16985;50.814;8.530;2023-09-12T15:19:47;28.30;73.50
30174;DHT22;16985;50.814;8.530;2023-09-12T15:22:13;28.40;74.20
30174;DHT22;16985;50.814;8.530;2023-09-12T15:24:40;28.40;74.20
30174;DHT22;16985;50.814;8.530;2023-09-12T15:27:06;28.40;74.50
30174;DHT22;16985;50.814;8.530;2023-09-12T15:29:32;28.40;74.60
30174;DHT22;16985;50.814;8.530;2023-09-12T15:31:59;28.40;74.90
30174;DHT22;16985;50.814;8.530;2023-09-12T15:34:26;28.40;75.00
30174;DHT22;16985;50.814;8.530;2023-09-12T15:37:09;28.40;74.70
30174;DHT22;16985;50.814;8.530;2023-09-12T15:39:36;26.60;73.90
30174;DHT22;16985;50.814;8.530;2023-09-12T15:42:02;28.30;75.00
30174;DHT22;16985;50.814;8.530;2023-09-12T15:44:28;28.40;75.10
30174;DHT22;16985;50.814;8.530;2023-09-12T15:46:54;28.30;73.90